createdAt,value
2019-04-04T00:01:59.956Z,4.5
2019-04-04T00:04:01.321Z,4.7
2019-04-04T00:06:02.754Z,4.8
2019-04-04T00:08:04.194Z,4.7
2019-04-04T00:10:05.603Z,4.5
2019-04-04T00:12:08.715Z,4.3
2019-04-04T00:14:13.483Z,4.2
2019-04-04T00:16:16.675Z,4.1
2019-04-04T00:18:18.053Z,4.5
2019-04-04T00:20:19.385Z,4.5
2019-04-04T00:22:20.814Z,4.5
2019-04-04T00:24:22.115Z,4.5
2019-04-04T00:26:23.499Z,4.2
2019-04-04T00:28:24.922Z,5.8
2019-04-04T00:30:26.351Z,4.7
2019-04-04T00:32:27.730Z,5
2019-04-04T00:34:29.083Z,5
2019-04-04T00:36:34.727Z,4.9
2019-04-04T00:38:38.655Z,4.3
2019-04-04T00:40:42.464Z,4.3
2019-04-04T00:42:43.870Z,4.6
2019-04-04T00:44:45.253Z,4.7
2019-04-04T00:46:46.644Z,5
2019-04-04T00:48:48.022Z,4.3
2019-04-04T00:50:49.459Z,3.4
2019-04-04T00:52:50.835Z,3.9
2019-04-04T00:54:52.172Z,4.5
2019-04-04T00:56:53.598Z,4.4
2019-04-04T00:58:54.945Z,4.4
2019-04-04T01:00:56.334Z,4.4
2019-04-04T01:02:59.007Z,4.5
2019-04-04T01:05:02.252Z,4.8
2019-04-04T01:07:05.726Z,4.5
2019-04-04T01:09:13.351Z,4.7
2019-04-04T01:11:14.894Z,4.1
2019-04-04T01:13:16.297Z,4.7
2019-04-04T01:15:17.730Z,5.1
2019-04-04T01:17:19.158Z,4.4
2019-04-04T01:19:20.588Z,5.4
2019-04-04T01:21:22.853Z,3.7
2019-04-04T01:23:27.103Z,4.3
2019-04-04T01:25:32.787Z,5.2
2019-04-04T01:27:37.032Z,5.3
2019-04-04T01:29:40.937Z,4.8
2019-04-04T01:31:46.566Z,4.8
2019-04-04T01:33:51.681Z,4.3
2019-04-04T01:35:54.593Z,4.8
2019-04-04T01:37:58.779Z,4.6
2019-04-04T01:40:02.879Z,5.1
2019-04-04T01:42:07.709Z,4.9
2019-04-04T01:44:11.814Z,4.6
2019-04-04T01:46:15.731Z,4.9
2019-04-04T01:48:19.383Z,5
2019-04-04T01:50:23.292Z,4.9
2019-04-04T01:52:28.816Z,4.8
2019-04-04T01:54:32.829Z,3.4
2019-04-04T01:56:37.582Z,4.2
2019-04-04T01:58:41.866Z,5.1
2019-04-04T02:00:46.452Z,4.7
2019-04-04T02:02:47.939Z,4.5
2019-04-04T02:04:49.318Z,4.1
2019-04-04T02:06:50.677Z,4.8
2019-04-04T02:08:52.012Z,5.5
2019-04-04T02:10:53.362Z,4.7
2019-04-04T02:12:54.811Z,4.8
2019-04-04T02:14:56.225Z,5.8
2019-04-04T02:16:57.652Z,4.9
2019-04-04T02:18:59.086Z,4.9
2019-04-04T02:21:00.465Z,5
2019-04-04T02:23:02.041Z,4.9
2019-04-04T02:25:03.921Z,4.1
2019-04-04T02:27:07.707Z,3.9
2019-04-04T02:29:11.663Z,4.9
2019-04-04T02:31:13.152Z,4.8
2019-04-04T02:33:14.508Z,4.9
2019-04-04T02:35:15.891Z,5
2019-04-04T02:37:21.873Z,5
2019-04-04T02:39:23.486Z,4.6
2019-04-04T02:41:24.828Z,5.1
2019-04-04T02:43:28.687Z,4.4
2019-04-04T02:45:30.176Z,4.9
2019-04-04T02:47:31.595Z,5
2019-04-04T02:49:33.039Z,5.4
2019-04-04T02:51:34.486Z,5.9
2019-04-04T02:53:36.019Z,5.8
2019-04-04T02:55:37.439Z,5.1
2019-04-04T02:57:42.599Z,5.2
2019-04-04T02:59:43.989Z,6
2019-04-04T03:01:45.399Z,5.6
2019-04-04T03:03:46.831Z,8.3
2019-04-04T03:05:52.275Z,6.2
2019-04-04T03:07:53.762Z,5.2
2019-04-04T03:09:55.181Z,6.4
2019-04-04T03:11:56.508Z,6.2
2019-04-04T03:13:57.862Z,5.4
2019-04-04T03:15:59.200Z,5.4
2019-04-04T03:18:05.335Z,5.1
2019-04-04T03:20:06.955Z,6.1
2019-04-04T03:22:08.375Z,5.2
2019-04-04T03:24:09.762Z,6
2019-04-04T03:26:11.188Z,6.1
2019-04-04T03:28:12.540Z,5.5
2019-04-04T03:30:17.357Z,5.6
2019-04-04T03:32:18.893Z,5.5
2019-04-04T03:34:20.365Z,5.4
2019-04-04T03:36:21.740Z,5.4
2019-04-04T03:38:23.170Z,5.3
2019-04-04T03:40:26.036Z,5.3
2019-04-04T03:42:27.424Z,5.5
2019-04-04T03:44:28.853Z,5.4
2019-04-04T03:46:38.549Z,9.8
2019-04-04T03:48:40.128Z,11.9
2019-04-04T03:50:41.466Z,8.6
2019-04-04T03:52:44.681Z,8.4
2019-04-04T03:54:46.129Z,7.1
2019-04-04T03:56:47.534Z,6.8
2019-04-04T03:58:48.972Z,6.3
2019-04-04T04:00:50.375Z,6.5
2019-04-04T04:02:51.700Z,7.5
2019-04-04T04:04:53.127Z,6.1
2019-04-04T04:06:54.542Z,5.9
2019-04-04T04:08:55.879Z,6.1
2019-04-04T04:10:57.212Z,5.6
2019-04-04T04:12:58.548Z,6
2019-04-04T04:15:00.008Z,6.1
2019-04-04T04:17:01.406Z,5.8
2019-04-04T04:19:02.788Z,6
2019-04-04T04:21:04.191Z,5.9
2019-04-04T04:23:05.599Z,5.5
2019-04-04T04:25:06.934Z,5.7
2019-04-04T04:27:08.371Z,6.1
2019-04-04T04:29:09.810Z,6.6
2019-04-04T04:31:15.400Z,7.2
2019-04-04T04:33:16.962Z,8
2019-04-04T04:35:18.385Z,9.3
2019-04-04T04:37:21.075Z,9.4
2019-04-04T04:39:22.485Z,8.4
2019-04-04T04:41:23.924Z,7.2
2019-04-04T04:43:25.342Z,6.9
2019-04-04T04:45:26.759Z,6.5
2019-04-04T04:47:28.168Z,6.6
2019-04-04T04:49:29.608Z,6.8
2019-04-04T04:51:31.074Z,7
2019-04-04T04:53:32.442Z,6.9
2019-04-04T04:55:33.865Z,6.9
2019-04-04T04:57:38.384Z,6.9
2019-04-04T04:59:39.740Z,6.8
2019-04-04T05:01:41.192Z,7.8
2019-04-04T05:03:42.593Z,8.2
2019-04-04T05:05:44.017Z,8.8
2019-04-04T05:07:45.422Z,9.5
2019-04-04T05:09:46.799Z,10.6
2019-04-04T05:11:50.903Z,11.5
2019-04-04T05:13:52.301Z,11.9
2019-04-04T05:15:53.636Z,11.8
2019-04-04T05:17:55.058Z,11.4
2019-04-04T05:19:56.423Z,10.8
2019-04-04T05:21:57.772Z,10.5
2019-04-04T05:23:59.205Z,10.8
2019-04-04T05:26:03.307Z,10.3
2019-04-04T05:28:06.477Z,11.5
2019-04-04T05:30:08.729Z,11
2019-04-04T05:32:10.137Z,10.8
2019-04-04T05:34:11.484Z,10.6
2019-04-04T05:36:12.910Z,10.3
2019-04-04T05:38:14.255Z,11.1
2019-04-04T05:40:15.684Z,10.1
2019-04-04T05:42:17.107Z,9.4
2019-04-04T05:44:18.506Z,8.7
2019-04-04T05:46:19.953Z,10.3
2019-04-04T05:48:21.347Z,10.2
2019-04-04T05:50:22.787Z,8.2
2019-04-04T05:52:24.153Z,8.7
2019-04-04T05:54:25.609Z,11.9
2019-04-04T05:56:27.033Z,11.7
2019-04-04T05:58:28.418Z,9.1
2019-04-04T06:00:29.845Z,9.1
2019-04-04T06:02:31.369Z,9.7
2019-04-04T06:04:32.769Z,9.1
2019-04-04T06:06:34.347Z,10.1
2019-04-04T06:08:43.181Z,11.8
2019-04-04T06:10:44.640Z,11.4
2019-04-04T06:12:46.070Z,11.7
2019-04-04T06:14:47.303Z,11.2
2019-04-04T06:16:48.571Z,9.6
2019-04-04T06:18:49.991Z,9.4
2019-04-04T06:20:51.341Z,8.4
2019-04-04T06:22:52.747Z,9.1
2019-04-04T06:24:54.098Z,9.1
2019-04-04T06:26:55.487Z,10.7
2019-04-04T06:28:56.950Z,10.4
2019-04-04T06:31:00.967Z,10
2019-04-04T06:33:05.146Z,9.8
2019-04-04T06:35:06.558Z,10.2
2019-04-04T06:37:07.981Z,8.3
2019-04-04T06:39:09.345Z,10
2019-04-04T06:41:10.778Z,8.9
2019-04-04T06:43:12.220Z,9.5
2019-04-04T06:45:16.869Z,10.7
2019-04-04T06:47:18.272Z,9.7
2019-04-04T06:49:19.949Z,11.1
2019-04-04T06:51:21.282Z,9.5
2019-04-04T06:53:22.931Z,10
2019-04-04T06:55:24.344Z,10.8
2019-04-04T06:57:25.764Z,11.4
2019-04-04T06:59:27.186Z,11.3
2019-04-04T07:01:28.607Z,11.1
2019-04-04T07:03:29.943Z,9.1
2019-04-04T07:05:31.328Z,12.6
2019-04-04T07:07:32.734Z,11.6
2019-04-04T07:09:34.120Z,15
2019-04-04T07:11:36.430Z,12.4
2019-04-04T07:13:43.048Z,17.7
2019-04-04T07:16:03.411Z,14.8
2019-04-04T07:18:06.810Z,16.3
2019-04-04T07:20:08.185Z,12.5
2019-04-04T07:22:09.565Z,12.2
2019-04-04T07:24:10.970Z,13.3
2019-04-04T07:26:15.054Z,14.1
2019-04-04T07:28:18.963Z,13.8
2019-04-04T07:30:21.028Z,12.3
2019-04-04T07:32:22.455Z,12.8
2019-04-04T07:34:23.884Z,14.8
2019-04-04T07:36:25.307Z,15.7
2019-04-04T07:38:29.320Z,14.5
2019-04-04T07:40:37.211Z,14
2019-04-04T07:42:40.609Z,15
2019-04-04T07:44:41.895Z,16.4
2019-04-04T07:46:46.128Z,17.1
2019-04-04T07:48:52.098Z,16.3
2019-04-04T07:50:53.684Z,14
2019-04-04T07:52:55.304Z,15.3
2019-04-04T07:54:57.002Z,13.1
2019-04-04T07:56:58.430Z,13.7
2019-04-04T07:58:59.879Z,13.2
2019-04-04T08:01:01.864Z,14.8
2019-04-04T08:03:03.237Z,15.2
2019-04-04T08:05:04.662Z,13
2019-04-04T08:07:05.998Z,13.5
2019-04-04T08:09:07.383Z,13.3
2019-04-04T08:11:08.807Z,13.4
2019-04-04T08:13:10.231Z,12.4
2019-04-04T08:15:27.727Z,13.8
2019-04-04T08:17:29.110Z,12.4
2019-04-04T08:19:32.009Z,11.8
2019-04-04T08:21:33.366Z,12.9
2019-04-04T08:23:34.797Z,12.9
2019-04-04T08:25:36.213Z,13.2
2019-04-04T08:27:37.636Z,13.2
2019-04-04T08:29:39.187Z,12.9
2019-04-04T08:31:40.603Z,12.8
2019-04-04T08:33:42.033Z,12.1
2019-04-04T08:35:43.450Z,11.8
2019-04-04T08:37:44.878Z,11
2019-04-04T08:39:47.206Z,12.4
2019-04-04T08:41:48.641Z,12.2
2019-04-04T08:43:50.065Z,10.8
2019-04-04T08:45:51.494Z,10.7
2019-04-04T08:47:52.931Z,10.8
2019-04-04T08:49:55.093Z,11.2
2019-04-04T08:51:57.189Z,10.4
2019-04-04T08:53:58.608Z,10.6
2019-04-04T08:56:00.046Z,10.9
2019-04-04T08:58:01.474Z,12.1
2019-04-04T09:00:02.875Z,12.6
2019-04-04T09:02:04.218Z,12
2019-04-04T09:04:05.637Z,11.3
2019-04-04T09:06:07.077Z,12.8
2019-04-04T09:08:08.470Z,13.8
2019-04-04T09:10:10.688Z,12.9
2019-04-04T09:12:12.819Z,12.3
2019-04-04T09:14:14.256Z,12.4
2019-04-04T09:16:16.343Z,12.9
2019-04-04T09:18:17.813Z,12.5
2019-04-04T09:20:19.659Z,11.3
2019-04-04T09:22:24.765Z,11.4
2019-04-04T09:24:26.185Z,12.5
2019-04-04T09:26:28.806Z,13.2
2019-04-04T09:28:30.252Z,14.2
2019-04-04T09:30:32.385Z,13.9
2019-04-04T09:32:34.348Z,12.2
2019-04-04T09:34:35.725Z,12.4
2019-04-04T09:36:37.164Z,11.3
2019-04-04T09:38:38.504Z,12.1
2019-04-04T09:40:39.945Z,13.4
2019-04-04T09:42:41.374Z,11.8
2019-04-04T09:44:42.778Z,20.2
2019-04-04T09:46:44.166Z,16.4
2019-04-04T09:48:45.580Z,31
2019-04-04T09:50:47.016Z,22.9
2019-04-04T09:52:48.505Z,20.6
2019-04-04T09:54:49.878Z,21.1
2019-04-04T09:56:51.260Z,25.8
2019-04-04T09:58:55.204Z,23.1
2019-04-04T10:00:56.690Z,24.3
2019-04-04T10:02:57.937Z,18.2
2019-04-04T10:04:59.218Z,19.2
2019-04-04T10:07:00.629Z,19.5
2019-04-04T10:09:16.177Z,16.3
2019-04-04T10:11:17.720Z,17.1
2019-04-04T10:13:19.379Z,18.4
2019-04-04T10:15:20.693Z,17.8
2019-04-04T10:17:22.073Z,32
2019-04-04T10:19:23.420Z,21
2019-04-04T10:21:24.903Z,31.4
2019-04-04T10:23:29.765Z,24.5
2019-04-04T10:25:31.905Z,24.4
2019-04-04T10:27:33.272Z,22.8
2019-04-04T10:29:34.701Z,17.7
2019-04-04T10:31:36.106Z,22.3
2019-04-04T10:33:37.393Z,20.6
2019-04-04T10:35:38.737Z,19.1
2019-04-04T10:37:40.175Z,18.6
2019-04-04T10:39:41.610Z,19.1
2019-04-04T10:41:43.032Z,17.3
2019-04-04T10:43:44.383Z,17
2019-04-04T10:45:45.801Z,15.8
2019-04-04T10:47:47.151Z,16.8
2019-04-04T10:49:48.569Z,16.6
2019-04-04T10:51:49.988Z,16.4
2019-04-04T10:53:51.266Z,16.3
2019-04-04T10:55:52.693Z,18.4
2019-04-04T10:57:54.119Z,17.7
2019-04-04T10:59:55.564Z,18
2019-04-04T11:02:00.845Z,17.2
2019-04-04T11:04:02.311Z,16
2019-04-04T11:06:03.754Z,17.8
2019-04-04T11:08:05.168Z,17.5
2019-04-04T11:10:06.602Z,17.5
2019-04-04T11:12:08.004Z,16.2
2019-04-04T11:14:09.356Z,18.4
2019-04-04T11:16:10.726Z,16.9
2019-04-04T11:20:13.434Z,15.6
2019-04-04T11:22:14.808Z,17.8
2019-04-04T11:24:16.171Z,16.8
2019-04-04T11:26:17.598Z,17.9
2019-04-04T11:28:19.045Z,17.3
2019-04-04T11:30:20.398Z,17.1
2019-04-04T11:32:21.766Z,17.5
2019-04-04T11:34:23.107Z,15.6
2019-04-04T11:36:24.532Z,16.4
2019-04-04T11:38:25.932Z,18.4
2019-04-04T11:40:27.307Z,18.7
2019-04-04T11:42:28.702Z,22.5
2019-04-04T11:44:30.974Z,16
2019-04-04T11:46:32.405Z,16.7
2019-04-04T11:48:33.751Z,16.5
2019-04-04T11:50:35.172Z,18.5
2019-04-04T11:52:36.625Z,18.4
2019-04-04T11:54:38.032Z,19.2
2019-04-04T11:56:39.419Z,17.2
2019-04-04T11:58:40.843Z,16.6
2019-04-04T12:00:42.194Z,17.4
2019-04-04T12:02:43.622Z,17.4
2019-04-04T12:04:45.058Z,16.9
2019-04-04T12:06:46.493Z,17.4
2019-04-04T12:08:47.901Z,16.6
2019-04-04T12:10:49.277Z,14.9
2019-04-04T12:12:50.669Z,17.6
2019-04-04T12:14:52.191Z,17.4
2019-04-04T12:16:53.576Z,15.3
2019-04-04T12:18:55.000Z,16.8
2019-04-04T12:20:56.380Z,16.8
2019-04-04T12:22:57.780Z,15.8
2019-04-04T12:24:59.211Z,16.7
2019-04-04T12:27:00.635Z,19.8
2019-04-04T12:29:01.904Z,18.5
2019-04-04T12:31:03.330Z,17.5
2019-04-04T12:33:04.765Z,18.9
2019-04-04T12:35:06.192Z,18.4
2019-04-04T12:37:07.620Z,19.2
2019-04-04T12:39:08.954Z,16.2
2019-04-04T12:41:10.391Z,18.9
2019-04-04T12:43:11.834Z,19
2019-04-04T12:45:13.175Z,14.5
2019-04-04T12:47:14.542Z,18.3
2019-04-04T12:49:15.960Z,15.8
2019-04-04T12:51:17.339Z,16.8
2019-04-04T12:53:18.969Z,18.8
2019-04-04T12:55:20.261Z,19.8
2019-04-04T12:57:21.689Z,16.2
2019-04-04T12:59:23.328Z,20.6
2019-04-04T13:01:24.674Z,18.2
2019-04-04T13:03:26.111Z,17.4
2019-04-04T13:05:27.740Z,18.3
2019-04-04T13:07:29.384Z,22.2
2019-04-04T13:09:30.820Z,17.2
2019-04-04T13:11:32.322Z,19.2
2019-04-04T13:13:33.742Z,20.4
2019-04-04T13:15:35.157Z,21.8
2019-04-04T13:17:36.596Z,20.1
2019-04-04T13:19:38.005Z,21.7
2019-04-04T13:21:39.358Z,21.1
2019-04-04T13:23:40.758Z,21
2019-04-04T13:25:42.193Z,20
2019-04-04T13:27:43.616Z,21.7
2019-04-04T13:29:45.032Z,24.1
2019-04-04T13:31:46.428Z,21.7
2019-04-04T13:33:47.955Z,23.9
2019-04-04T13:35:49.356Z,21.9
2019-04-04T13:37:50.774Z,22.2
2019-04-04T13:39:52.165Z,22.6
2019-04-04T13:41:53.587Z,24.5
2019-04-04T13:43:55.020Z,23.3
2019-04-04T13:45:56.454Z,22.6
2019-04-04T13:47:57.714Z,21.4
2019-04-04T13:49:59.098Z,21.8
2019-04-04T13:52:00.432Z,24
2019-04-04T13:54:01.817Z,26.2
2019-04-04T13:56:03.290Z,30.8
2019-04-04T13:58:04.685Z,26.4
2019-04-04T14:00:06.062Z,24
2019-04-04T14:02:07.369Z,23.3
2019-04-04T14:04:08.905Z,21.9
2019-04-04T14:06:10.334Z,21.6
2019-04-04T14:08:14.614Z,22
2019-04-04T14:10:18.187Z,21.8
2019-04-04T14:12:19.644Z,21.4
2019-04-04T14:14:21.257Z,22
2019-04-04T14:16:22.613Z,21.1
2019-04-04T14:18:24.061Z,21.5
2019-04-04T14:20:25.443Z,21.9
2019-04-04T14:22:26.801Z,22.5
2019-04-04T14:24:28.208Z,22.5
2019-04-04T14:26:32.007Z,21.4
2019-04-04T14:28:33.479Z,21
2019-04-04T14:30:35.360Z,22
2019-04-04T14:32:36.787Z,19.9
2019-04-04T14:34:38.221Z,23.4
2019-04-04T14:36:39.654Z,23.3
2019-04-04T14:38:41.084Z,23
2019-04-04T14:40:42.518Z,22.9
2019-04-04T14:42:43.988Z,25.7
2019-04-04T14:44:45.373Z,23
2019-04-04T14:46:46.948Z,23.6
2019-04-04T14:48:48.381Z,25.6
2019-04-04T14:50:49.741Z,23.8
2019-04-04T14:52:52.413Z,23.4
2019-04-04T14:54:53.741Z,25.9
2019-04-04T14:56:55.170Z,26.1
2019-04-04T14:58:56.580Z,26.6
2019-04-04T15:00:57.932Z,27.3
2019-04-04T15:02:59.396Z,28.5
2019-04-04T15:05:00.918Z,26.8
2019-04-04T15:07:02.241Z,26.7
2019-04-04T15:09:03.610Z,26.9
2019-04-04T15:11:05.023Z,26.5
2019-04-04T15:13:06.378Z,26.5
2019-04-04T15:15:07.752Z,28.4
2019-04-04T15:17:09.082Z,28.7
2019-04-04T15:19:10.446Z,28.8
2019-04-04T15:21:11.699Z,27.2
2019-04-04T15:23:13.089Z,29.5
2019-04-04T15:25:14.462Z,28.8
2019-04-04T15:27:15.907Z,27.6
2019-04-04T15:29:17.356Z,30.4
2019-04-04T15:31:18.771Z,28.4
2019-04-04T15:33:20.200Z,31
2019-04-04T15:35:21.641Z,29.4
2019-04-04T15:37:23.060Z,27.5
2019-04-04T15:39:24.407Z,28.1
2019-04-04T15:41:37.489Z,30.5
2019-04-04T15:43:39.065Z,31
2019-04-04T15:45:40.472Z,30
2019-04-04T15:47:41.834Z,30.8
2019-04-04T15:49:43.207Z,30.9
2019-04-04T15:51:44.606Z,29.7
2019-04-04T15:53:45.975Z,31
2019-04-04T15:55:47.312Z,32.1
2019-04-04T15:57:48.848Z,31.4
2019-04-04T15:59:50.232Z,30.3
2019-04-04T16:01:51.495Z,28.3
2019-04-04T16:03:52.883Z,28.8
2019-04-04T16:05:54.361Z,29.5
2019-04-04T16:07:55.641Z,28.2
2019-04-04T16:09:57.021Z,30.6
2019-04-04T16:11:58.398Z,29.9
2019-04-04T16:13:59.730Z,30.1
2019-04-04T16:16:01.155Z,30.3
2019-04-04T16:18:02.600Z,30.2
2019-04-04T16:20:04.033Z,33.2
2019-04-04T16:22:05.452Z,28.5
2019-04-04T16:24:07.092Z,31.7
2019-04-04T16:26:08.489Z,30.8
2019-04-04T16:28:09.871Z,31.6
2019-04-04T16:30:11.242Z,31.2
2019-04-04T16:32:12.620Z,30.7
2019-04-04T16:34:14.021Z,30.2
2019-04-04T16:36:15.397Z,33
2019-04-04T16:38:16.741Z,33
2019-04-04T16:40:18.158Z,33
2019-04-04T16:42:19.570Z,32.7
2019-04-04T16:44:20.989Z,32.5
2019-04-04T16:46:22.421Z,29.9
2019-04-04T16:48:23.770Z,32.2
2019-04-04T16:50:25.117Z,32.1
2019-04-04T16:52:26.526Z,31.9
2019-04-04T16:54:27.965Z,31.9
2019-04-04T16:56:29.392Z,31.6
2019-04-04T16:58:30.815Z,32.2
2019-04-04T17:00:32.154Z,32.2
2019-04-04T17:02:33.497Z,32.5
2019-04-04T17:04:34.925Z,29.5
2019-04-04T17:06:36.325Z,31.4
2019-04-04T17:08:37.751Z,31.8
2019-04-04T17:10:39.174Z,32.3
2019-04-04T17:12:40.606Z,32.7
2019-04-04T17:14:42.034Z,30.8
2019-04-04T17:16:43.464Z,32.4
2019-04-04T17:18:44.886Z,31.7
2019-04-04T17:20:46.334Z,33.2
2019-04-04T17:22:47.739Z,31.1
2019-04-04T17:24:49.163Z,33.8
2019-04-04T17:26:50.587Z,34.5
2019-04-04T17:28:52.463Z,33.9
2019-04-04T17:30:54.123Z,34.9
2019-04-04T17:32:55.612Z,35.1
2019-04-04T17:34:57.187Z,33.6
2019-04-04T17:36:58.906Z,33.2
2019-04-04T17:39:00.644Z,29.5
2019-04-04T17:41:02.275Z,27.2
2019-04-04T17:43:03.659Z,31.1
2019-04-04T17:45:04.977Z,32.9
2019-04-04T17:47:06.724Z,31.3
2019-04-04T17:49:08.108Z,33.3
2019-04-04T17:51:09.534Z,31.3
2019-04-04T17:53:11.075Z,36.1
2019-04-04T17:55:12.494Z,33.3
2019-04-04T17:57:14.410Z,35
2019-04-04T17:59:15.931Z,32.8
2019-04-04T18:01:17.292Z,33.1
2019-04-04T18:03:18.670Z,30.4
2019-04-04T18:05:20.008Z,31.3
2019-04-04T18:07:21.447Z,29.7
2019-04-04T18:09:32.257Z,30.2
2019-04-04T18:11:33.660Z,33.5
2019-04-04T18:13:35.039Z,33.9
2019-04-04T18:15:36.422Z,34.6
2019-04-04T18:17:37.813Z,35
2019-04-04T18:19:39.185Z,34.5
2019-04-04T18:21:40.627Z,35.5
2019-04-04T18:23:42.054Z,37
2019-04-04T18:25:43.478Z,33.2
2019-04-04T18:27:44.912Z,35.4
2019-04-04T18:29:46.322Z,37.3
2019-04-04T18:31:47.674Z,37.3
2019-04-04T18:33:49.581Z,38.6
2019-04-04T18:35:50.938Z,37
2019-04-04T18:37:52.329Z,35.5
2019-04-04T18:39:53.758Z,36.7
2019-04-04T18:41:55.187Z,36.6
2019-04-04T18:44:03.599Z,37
2019-04-04T18:46:04.990Z,37.5
2019-04-04T18:48:06.332Z,35.6
2019-04-04T18:50:07.738Z,36.8
2019-04-04T18:52:09.107Z,35.5
2019-04-04T18:54:10.486Z,35.9
2019-04-04T18:56:11.910Z,33.2
2019-04-04T18:58:13.253Z,38.3
2019-04-04T19:00:14.687Z,36.1
2019-04-04T19:02:15.999Z,36.1
2019-04-04T19:04:17.455Z,36.7
2019-04-04T19:06:18.863Z,36
2019-04-04T19:08:20.302Z,35
2019-04-04T19:10:21.665Z,38.8
2019-04-04T19:12:23.101Z,37.3
2019-04-04T19:14:24.548Z,37.9
2019-04-04T19:16:25.921Z,35.6
2019-04-04T19:18:27.350Z,34.1
2019-04-04T19:20:28.759Z,36.4
2019-04-04T19:22:30.156Z,33.2
2019-04-04T19:24:31.593Z,33.2
2019-04-04T19:26:33.033Z,30.3
2019-04-04T19:28:34.441Z,34.3
2019-04-04T19:30:35.866Z,32.7
2019-04-04T19:32:37.296Z,33.8
2019-04-04T19:34:38.723Z,33.3
2019-04-04T19:36:42.110Z,31.9
2019-04-04T19:38:43.480Z,34.4
2019-04-04T19:40:44.891Z,35.3
2019-04-04T19:42:46.318Z,32.6
2019-04-04T19:44:53.842Z,33.2
2019-04-04T19:46:55.292Z,32.9
2019-04-04T19:48:56.716Z,33.5
2019-04-04T19:50:58.111Z,30
2019-04-04T19:52:59.466Z,33.4
2019-04-04T19:55:00.896Z,28.6
2019-04-04T19:57:02.331Z,31.5
2019-04-04T19:59:03.757Z,33.3
2019-04-04T20:01:05.266Z,31.4
2019-04-04T20:03:06.619Z,31.5
2019-04-04T20:05:08.034Z,32.1
2019-04-04T20:07:09.680Z,31.3
2019-04-04T20:09:11.065Z,31.1
2019-04-04T20:11:12.461Z,33.2
2019-04-04T20:13:13.890Z,33.2
2019-04-04T20:15:15.290Z,32.2
2019-04-04T20:17:16.717Z,32.9
2019-04-04T20:19:18.142Z,31.9
2019-04-04T20:21:19.567Z,31.3
2019-04-04T20:23:20.994Z,30.1
2019-04-04T20:25:22.422Z,29.4
2019-04-04T20:27:23.850Z,27.4
2019-04-04T20:29:25.270Z,30.6
2019-04-04T20:31:26.603Z,30.3
2019-04-04T20:33:28.002Z,30.3
2019-04-04T20:35:29.435Z,26.1
2019-04-04T20:37:30.856Z,29.3
2019-04-04T20:39:32.292Z,30.2
2019-04-04T20:41:33.718Z,28.8
2019-04-04T20:43:43.766Z,30.3
2019-04-04T20:45:45.259Z,31
2019-04-04T20:47:46.694Z,31.9
2019-04-04T20:49:48.075Z,31.8
2019-04-04T20:51:49.421Z,31.6
2019-04-04T20:53:50.798Z,29.9
2019-04-04T20:55:52.166Z,32
2019-04-04T20:57:53.433Z,30
2019-04-04T20:59:54.846Z,28.5
2019-04-04T21:01:56.267Z,26.1
2019-04-04T21:03:57.599Z,28.7
2019-04-04T21:05:59.022Z,28.2
2019-04-04T21:08:00.378Z,27.3
2019-04-04T21:10:01.808Z,26.9
2019-04-04T21:12:03.230Z,27.3
2019-04-04T21:14:04.653Z,24.7
2019-04-04T21:16:06.077Z,26.4
2019-04-04T21:18:07.409Z,26
2019-04-04T21:20:08.813Z,25.3
2019-04-04T21:22:10.165Z,22.8
2019-04-04T21:24:11.557Z,26.8
2019-04-04T21:26:12.988Z,26
2019-04-04T21:28:14.417Z,24.1
2019-04-04T21:30:15.845Z,23
2019-04-04T21:32:17.239Z,21.8
2019-04-04T21:34:18.622Z,23.4
2019-04-04T21:36:19.993Z,24.1
2019-04-04T21:38:21.416Z,22.4
2019-04-04T21:40:22.811Z,24.9
2019-04-04T21:42:24.241Z,20.8
2019-04-04T21:44:25.672Z,24.8
2019-04-04T21:46:27.098Z,26.7
2019-04-04T21:48:28.532Z,23.6
2019-04-04T21:50:29.920Z,22.4
2019-04-04T21:52:31.342Z,24.2
2019-04-04T21:54:32.774Z,26
2019-04-04T21:56:34.156Z,26.1
2019-04-04T21:58:35.513Z,27.2
2019-04-04T22:00:36.901Z,26.3
2019-04-04T22:02:38.285Z,27
2019-04-04T22:04:39.712Z,28.9
2019-04-04T22:06:41.120Z,26.7
2019-04-04T22:08:42.533Z,24.5
2019-04-04T22:10:43.958Z,27.2
2019-04-04T22:12:45.386Z,26.7
2019-04-04T22:14:46.817Z,28.8
2019-04-04T22:16:48.243Z,29.9
2019-04-04T22:18:49.588Z,26.6
2019-04-04T22:20:51.005Z,25.1
2019-04-04T22:22:52.350Z,21.2
2019-04-04T22:24:53.698Z,22.8
2019-04-04T22:26:55.117Z,24.8
2019-04-04T22:28:56.500Z,21.5
2019-04-04T22:30:57.908Z,21.8
2019-04-04T22:33:01.950Z,21.6
2019-04-04T22:35:03.369Z,21.9
2019-04-04T22:37:04.777Z,22.1
2019-04-04T22:39:06.167Z,21.2
2019-04-04T22:41:07.507Z,21.2
2019-04-04T22:43:08.923Z,21.3
2019-04-04T22:45:10.306Z,23.8
2019-04-04T22:47:11.735Z,21.5
2019-04-04T22:49:13.167Z,22
2019-04-04T22:51:14.508Z,22.2
2019-04-04T22:53:15.927Z,23.8
2019-04-04T22:55:17.277Z,22.4
2019-04-04T22:57:18.705Z,23.7
2019-04-04T22:59:20.097Z,21.5
2019-04-04T23:01:21.488Z,24.1
2019-04-04T23:03:22.919Z,23.6
2019-04-04T23:05:24.338Z,23.6
2019-04-04T23:07:25.771Z,23.9
2019-04-04T23:09:27.205Z,23.2
2019-04-04T23:11:28.627Z,21.7
2019-04-04T23:13:30.054Z,24.4
2019-04-04T23:15:31.492Z,23.5
2019-04-04T23:17:32.912Z,23.3
2019-04-04T23:19:34.307Z,23.6
2019-04-04T23:21:35.679Z,24.2
2019-04-04T23:23:37.028Z,25.2
2019-04-04T23:27:39.845Z,24.4
2019-04-04T23:29:42.873Z,24.3
2019-04-04T23:31:44.246Z,24
2019-04-04T23:33:45.567Z,22.7
2019-04-04T23:35:46.957Z,22.8
2019-04-04T23:37:48.237Z,22.5
2019-04-04T23:39:49.584Z,24.5
2019-04-04T23:41:50.998Z,24.4
2019-04-04T23:43:52.263Z,22.1
2019-04-04T23:45:53.705Z,22.6
2019-04-04T23:47:55.120Z,24.8
2019-04-04T23:49:56.551Z,23.1
2019-04-04T23:51:57.962Z,24.5
2019-04-04T23:53:59.394Z,23.3
2019-04-04T23:56:00.831Z,23.5
2019-04-04T23:58:02.227Z,24.1
